Time;durP1;ratioP1;P1;durP2;ratioP2;P2;SDS_P1;SDS_P2;PMS_P1;PMS_P2;Temp;Humidity;BMP_temperature;BMP_pressure;BME280_temperature;BME280_humidity;BME280_pressure;Samples;Min_cycle;Max_cycle;Signal;HPM_P1;HPM_P2
2024/04/20 00:00:20;;;;;;;4.27;2.20;;;;;;;9.58;59.73;97005.75;5432512;26;20232;-71
2024/04/20 00:02:46;;;;;;;5.43;2.50;;;;;;;9.60;59.84;97001.19;5444028;26;20247;-71
2024/04/20 00:05:12;;;;;;;2.93;2.20;;;;;;;9.60;59.87;97009.06;5445611;26;20231;-71
2024/04/20 00:07:37;;;;;;;6.53;2.73;;;;;;;9.59;59.91;97012.63;5445980;26;20717;-71
2024/04/20 00:10:03;;;;;;;7.53;2.40;;;;;;;9.64;59.91;97014.84;5447283;26;20231;-70
2024/04/20 00:12:29;;;;;;;10.90;2.27;;;;;;;9.59;59.75;97006.59;5435948;26;20244;-73
2024/04/20 00:14:55;;;;;;;9.13;2.80;;;;;;;9.63;59.66;97000.91;5441800;26;20231;-70
2024/04/20 00:17:20;;;;;;;9.63;2.73;;;;;;;9.66;59.42;97007.63;5447104;26;20521;-71
2024/04/20 00:19:46;;;;;;;5.37;2.13;;;;;;;9.59;59.21;97007.41;5447317;26;20820;-72
2024/04/20 00:22:12;;;;;;;4.53;2.30;;;;;;;9.53;59.40;97013.25;5433360;26;20266;-70
2024/04/20 00:24:38;;;;;;;5.47;2.30;;;;;;;9.57;59.45;97014.59;5424744;26;20282;-73
2024/04/20 00:27:05;;;;;;;7.87;2.27;;;;;;;9.55;59.14;97016.56;5453972;26;20444;-71
2024/04/20 00:29:30;;;;;;;7.40;2.40;;;;;;;9.57;59.19;97019.00;5452940;26;20507;-72
2024/04/20 00:31:56;;;;;;;8.93;2.60;;;;;;;9.55;59.17;97020.94;5451667;26;20473;-71
2024/04/20 00:34:21;;;;;;;6.43;1.87;;;;;;;9.55;58.89;97029.63;5433604;26;20243;-72
2024/04/20 00:36:50;;;;;;;7.47;2.30;;;;;;;9.53;58.76;97024.53;5434508;26;20236;-70
2024/04/20 00:39:15;;;;;;;6.30;2.40;;;;;;;9.52;58.98;97027.31;5433373;26;20229;-72
2024/04/20 00:41:48;;;;;;;4.37;1.97;;;;;;;9.44;58.99;97027.25;5445622;26;20548;-69
2024/04/20 00:44:14;;;;;;;12.27;2.60;;;;;;;9.45;58.89;97036.75;5441126;26;20239;-70
2024/04/20 00:46:40;;;;;;;10.37;2.43;;;;;;;9.42;58.79;97037.84;5444986;26;20521;-71
2024/04/20 00:49:06;;;;;;;5.97;2.17;;;;;;;9.42;58.59;97039.66;5441145;26;20286;-70
2024/04/20 00:51:33;;;;;;;4.47;1.87;;;;;;;9.38;58.84;97039.13;5446961;26;20497;-69
2024/04/20 00:53:59;;;;;;;8.00;2.67;;;;;;;9.38;58.99;97039.94;5444690;26;20460;-73
2024/04/20 00:56:24;;;;;;;9.17;2.63;;;;;;;9.41;58.75;97030.97;5404031;26;20243;-72
2024/04/20 00:58:50;;;;;;;16.33;2.40;;;;;;;9.40;58.90;97041.59;5446626;26;20437;-71
2024/04/20 01:01:16;;;;;;;10.43;2.97;;;;;;;9.38;58.83;97045.16;5446918;26;20227;-71
2024/04/20 01:03:42;;;;;;;10.20;3.23;;;;;;;9.38;59.07;97047.78;5385639;26;20247;-70
2024/04/20 01:06:08;;;;;;;4.37;1.90;;;;;;;9.30;59.36;97050.31;5446524;26;20571;-70
2024/04/20 01:08:34;;;;;;;7.53;2.17;;;;;;;9.40;59.48;97050.25;5445817;26;20235;-70
2024/04/20 01:10:59;;;;;;;3.93;1.97;;;;;;;9.37;59.37;97056.59;5443199;26;20284;-71
2024/04/20 01:13:28;;;;;;;4.03;2.20;;;;;;;9.41;59.30;97048.47;5437173;26;20292;-70
2024/04/20 01:15:53;;;;;;;5.63;2.17;;;;;;;9.39;59.43;97059.06;5441816;26;20235;-71
2024/04/20 01:18:19;;;;;;;6.73;2.30;;;;;;;9.43;59.15;97059.59;5460261;26;20490;-71
2024/04/20 01:20:45;;;;;;;8.37;2.37;;;;;;;9.44;59.29;97059.44;5444589;26;20772;-71
2024/04/20 01:23:11;;;;;;;6.87;2.27;;;;;;;9.48;59.40;97057.34;5444553;26;20286;-70
2024/04/20 01:25:46;;;;;;;4.77;2.10;;;;;;;9.35;58.85;97062.97;5446262;26;20240;-71
2024/04/20 01:28:11;;;;;;;8.40;2.27;;;;;;;9.40;59.12;97058.09;5440210;26;20227;-69
2024/04/20 01:30:37;;;;;;;4.70;2.03;;;;;;;9.46;59.14;97059.28;5446089;26;20507;-72
2024/04/20 01:33:02;;;;;;;5.43;2.10;;;;;;;9.47;58.83;97058.31;5445912;26;20235;-70
2024/04/20 01:35:29;;;;;;;7.23;2.27;;;;;;;9.46;59.04;97067.13;5438268;26;20248;-70
2024/04/20 01:37:58;;;;;;;4.67;2.23;;;;;;;9.42;58.97;97060.56;5436467;26;20239;-71
2024/04/20 01:40:23;;;;;;;6.63;2.53;;;;;;;9.36;58.90;97062.00;5437536;26;20466;-71
2024/04/20 01:42:49;;;;;;;6.20;2.60;;;;;;;9.33;59.41;97076.16;5433066;26;20501;-71
2024/04/20 01:45:14;;;;;;;7.70;1.83;;;;;;;9.31;59.26;97067.66;5445729;26;20708;-70
2024/04/20 01:47:40;;;;;;;7.33;2.03;;;;;;;9.31;59.12;97075.50;5445744;26;20285;-71
2024/04/20 01:50:06;;;;;;;8.30;2.33;;;;;;;9.27;59.25;97071.53;5439677;26;20689;-72
2024/04/20 01:52:32;;;;;;;12.87;2.33;;;;;;;9.30;59.30;97075.63;5446185;26;20343;-71
2024/04/20 01:54:58;;;;;;;7.67;2.57;;;;;;;9.37;59.39;97074.91;5430868;26;20465;-69
2024/04/20 01:57:23;;;;;;;7.43;2.00;;;;;;;9.34;58.65;97072.56;5440615;26;20888;-73
2024/04/20 01:59:49;;;;;;;4.80;2.00;;;;;;;9.31;58.86;97072.06;5443873;26;21083;-70
2024/04/20 02:02:14;;;;;;;7.27;1.90;;;;;;;9.29;58.64;97072.22;5434966;26;20351;-68
2024/04/20 02:04:39;;;;;;;6.37;2.10;;;;;;;9.31;58.60;97078.13;5445293;26;20278;-72
2024/04/20 02:07:05;;;;;;;6.30;2.07;;;;;;;9.31;58.67;97080.75;5442994;26;20637;-71
2024/04/20 02:09:32;;;;;;;5.90;1.90;;;;;;;9.29;58.55;97085.28;5433154;26;20307;-69
2024/04/20 02:11:58;;;;;;;5.50;1.93;;;;;;;9.31;58.21;97080.75;5446057;26;20306;-71
2024/04/20 02:14:23;;;;;;;15.27;2.10;;;;;;;9.33;58.37;97078.78;5446027;26;20449;-71
2024/04/20 02:16:48;;;;;;;4.90;2.20;;;;;;;9.38;58.22;97087.00;5436082;26;20227;-71
2024/04/20 02:19:14;;;;;;;6.37;2.20;;;;;;;9.40;57.87;97088.66;5441277;26;20685;-70
2024/04/20 02:21:39;;;;;;;4.73;2.30;;;;;;;9.38;58.21;97094.88;5424862;26;20236;-70
2024/04/20 02:24:05;;;;;;;10.23;2.40;;;;;;;9.35;58.30;97087.31;5444693;26;20320;-72
2024/04/20 02:26:31;;;;;;;4.03;1.93;;;;;;;9.31;58.62;97088.59;5445053;26;20328;-70
2024/04/20 02:28:56;;;;;;;5.10;1.93;;;;;;;9.31;58.51;97090.38;5430946;26;20457;-71
2024/04/20 02:31:22;;;;;;;5.97;1.93;;;;;;;9.30;58.38;97086.09;5442084;26;20281;-70
2024/04/20 02:33:47;;;;;;;7.07;1.53;;;;;;;9.28;58.52;97093.25;5445834;26;20231;-69
2024/04/20 02:36:12;;;;;;;4.90;1.80;;;;;;;9.15;58.56;97101.47;5426306;26;20644;-70
2024/04/20 02:38:38;;;;;;;5.73;1.60;;;;;;;9.16;58.61;97105.72;5433986;26;20290;-70
2024/04/20 02:41:03;;;;;;;8.93;1.93;;;;;;;9.19;58.59;97100.22;5442387;26;20235;-72
2024/04/20 02:43:29;;;;;;;5.03;2.10;;;;;;;9.17;58.95;97108.19;5445722;26;20243;-70
2024/04/20 02:45:54;;;;;;;4.90;1.90;;;;;;;9.20;58.79;97107.91;5445441;26;20267;-71
2024/04/20 02:48:21;;;;;;;3.20;2.00;;;;;;;9.15;58.63;97117.97;5408054;26;20243;-70
2024/04/20 02:50:47;;;;;;;4.77;2.00;;;;;;;9.16;58.85;97109.16;5427666;26;20301;-71
2024/04/20 02:53:12;;;;;;;4.97;2.00;;;;;;;9.14;58.23;97112.91;5407664;26;20465;-69
2024/04/20 02:55:37;;;;;;;5.43;2.23;;;;;;;9.06;58.55;97111.84;5445361;26;20346;-70
2024/04/20 02:58:03;;;;;;;6.70;2.30;;;;;;;9.02;58.53;97109.63;5444150;26;20834;-70
2024/04/20 03:00:28;;;;;;;7.00;2.23;;;;;;;9.05;58.23;97104.97;5445440;26;20281;-70
2024/04/20 03:02:54;;;;;;;8.50;2.93;;;;;;;9.02;58.21;97113.09;5432728;26;20366;-71
2024/04/20 03:05:20;;;;;;;7.33;2.17;;;;;;;9.02;58.40;97105.25;5441532;26;20277;-71
2024/04/20 03:07:45;;;;;;;4.10;1.90;;;;;;;9.06;58.38;97113.63;5443125;26;20732;-69
2024/04/20 03:10:11;;;;;;;8.33;2.40;;;;;;;8.99;58.51;97113.38;5444142;26;21090;-73
2024/04/20 03:12:37;;;;;;;7.20;1.97;;;;;;;9.03;58.59;97117.34;5437047;26;20271;-69
2024/04/20 03:15:02;;;;;;;5.93;1.77;;;;;;;9.03;58.50;97116.50;5466953;26;20247;-71
2024/04/20 03:17:28;;;;;;;6.23;2.03;;;;;;;9.10;58.13;97125.44;5432271;26;20228;-71
2024/04/20 03:19:53;;;;;;;10.23;1.83;;;;;;;9.09;57.95;97115.94;5434971;26;20236;-71
2024/04/20 03:22:20;;;;;;;6.53;2.20;;;;;;;9.05;58.18;97119.81;5439050;26;20717;-71
2024/04/20 03:24:45;;;;;;;12.73;1.93;;;;;;;9.05;57.88;97125.88;5424116;26;20621;-71
2024/04/20 03:27:11;;;;;;;9.50;1.93;;;;;;;9.05;57.93;97125.88;5430166;26;20448;-71
2024/04/20 03:29:36;;;;;;;5.83;1.77;;;;;;;9.04;57.66;97133.84;5431323;26;20652;-70
2024/04/20 03:32:02;;;;;;;7.90;1.90;;;;;;;9.06;58.07;97131.91;5431192;26;20295;-71
2024/04/20 03:34:27;;;;;;;4.20;1.80;;;;;;;9.03;57.96;97130.44;5419962;26;20399;-73
2024/04/20 03:36:53;;;;;;;10.17;1.93;;;;;;;9.02;58.09;97136.63;5445504;26;20732;-70
2024/04/20 03:39:18;;;;;;;9.63;2.63;;;;;;;8.99;57.96;97142.13;5421833;26;20538;-71
2024/04/20 03:41:47;;;;;;;6.17;2.37;;;;;;;9.04;58.19;97145.16;5446268;26;20270;-70
2024/04/20 03:44:15;;;;;;;6.00;2.13;;;;;;;9.05;58.23;97146.78;5445610;26;20238;-72
2024/04/20 03:46:41;;;;;;;5.13;1.97;;;;;;;9.04;58.33;97155.59;5439124;26;20454;-70
2024/04/20 03:49:06;;;;;;;8.13;2.53;;;;;;;9.01;58.05;97161.09;5416470;26;20847;-71
2024/04/20 03:51:32;;;;;;;6.67;2.70;;;;;;;8.98;58.37;97157.97;5434987;26;20926;-69
2024/04/20 03:54:01;;;;;;;5.73;2.07;;;;;;;9.05;58.42;97161.63;5428863;26;20245;-70
2024/04/20 03:56:27;;;;;;;8.90;2.30;;;;;;;9.09;58.25;97168.25;5425768;26;20450;-71
2024/04/20 03:58:53;;;;;;;6.70;1.90;;;;;;;9.04;58.27;97171.28;5445001;26;20448;-72
2024/04/20 04:01:18;;;;;;;4.53;2.30;;;;;;;9.10;58.03;97174.28;5431099;26;20457;-71
2024/04/20 04:03:44;;;;;;;5.43;1.87;;;;;;;9.13;58.16;97184.47;5445548;26;20244;-72
2024/04/20 04:06:09;;;;;;;10.23;2.20;;;;;;;9.10;58.22;97185.56;5415608;26;20269;-69
2024/04/20 04:08:35;;;;;;;7.90;2.20;;;;;;;9.13;58.53;97195.75;5437833;26;20908;-70
2024/04/20 04:11:00;;;;;;;10.60;1.90;;;;;;;9.13;58.46;97190.53;5438637;26;20589;-69
2024/04/20 04:13:26;;;;;;;8.33;3.63;;;;;;;9.14;58.25;97197.38;5444792;26;20251;-71
2024/04/20 04:15:52;;;;;;;5.60;3.53;;;;;;;9.16;58.31;97205.09;5436574;26;20745;-71
2024/04/20 04:18:17;;;;;;;7.47;2.57;;;;;;;9.15;58.26;97206.88;5442453;26;20803;-70
2024/04/20 04:20:42;;;;;;;7.33;2.27;;;;;;;9.17;58.07;97210.16;5444971;26;20239;-73
2024/04/20 04:23:08;;;;;;;7.73;2.40;;;;;;;9.18;57.85;97203.97;5444582;26;20231;-71
2024/04/20 04:25:35;;;;;;;7.23;3.50;;;;;;;9.19;57.79;97205.63;5442216;26;20247;-70
2024/04/20 04:28:00;;;;;;;3.33;2.13;;;;;;;9.20;57.90;97207.28;5445150;26;20239;-70
2024/04/20 04:30:26;;;;;;;13.80;3.20;;;;;;;9.20;58.14;97207.28;5444442;26;20457;-70
2024/04/20 04:32:51;;;;;;;3.53;2.03;;;;;;;9.24;58.25;97213.03;5447281;26;21072;-70
2024/04/20 04:35:17;;;;;;;8.40;2.10;;;;;;;9.25;57.91;97211.25;5441683;26;20235;-72
2024/04/20 04:37:43;;;;;;;4.87;1.77;;;;;;;9.19;57.86;97215.28;5434733;26;20292;-71
2024/04/20 04:40:09;;;;;;;5.07;1.90;;;;;;;9.19;57.76;97223.13;5451052;26;20693;-71
2024/04/20 04:42:34;;;;;;;8.70;2.10;;;;;;;9.15;57.86;97229.59;5456095;26;20339;-73
2024/04/20 04:45:00;;;;;;;8.90;2.13;;;;;;;9.11;58.05;97233.44;5453979;26;20877;-71
2024/04/20 04:47:25;;;;;;;7.43;2.20;;;;;;;9.12;58.18;97240.31;5447723;26;20235;-71
2024/04/20 04:49:51;;;;;;;7.50;2.00;;;;;;;9.04;57.97;97241.03;5422191;26;20240;-72
2024/04/20 04:52:17;;;;;;;12.10;2.47;;;;;;;9.03;58.39;97248.06;5448947;26;20309;-71
2024/04/20 04:54:42;;;;;;;3.10;2.40;;;;;;;8.98;58.69;97239.81;5423326;26;20231;-71
2024/04/20 04:57:09;;;;;;;6.93;2.80;;;;;;;9.04;58.61;97252.34;5438339;26;20244;-70
2024/04/20 04:59:34;;;;;;;5.60;2.83;;;;;;;9.07;58.76;97252.03;5434268;26;20303;-72
2024/04/20 05:02:00;;;;;;;4.17;1.80;;;;;;;9.10;58.78;97256.16;5445774;26;20457;-72
2024/04/20 05:04:26;;;;;;;6.00;2.27;;;;;;;9.07;58.32;97259.88;5428269;26;20306;-70
2024/04/20 05:06:52;;;;;;;7.80;2.63;;;;;;;9.13;58.79;97268.97;5413301;26;20236;-71
2024/04/20 05:09:17;;;;;;;3.10;2.17;;;;;;;9.18;58.71;97277.19;5439869;26;20457;-71
2024/04/20 05:11:42;;;;;;;3.00;1.93;;;;;;;9.04;58.55;97281.09;5437659;26;20356;-71
2024/04/20 05:14:08;;;;;;;6.50;2.60;;;;;;;9.04;58.40;97286.31;5438327;26;20361;-71
2024/04/20 05:16:33;;;;;;;5.30;2.37;;;;;;;9.09;58.12;97292.91;5436412;26;20227;-70
2024/04/20 05:18:59;;;;;;;4.37;2.30;;;;;;;9.14;58.59;97295.94;5426874;26;20233;-73
2024/04/20 05:21:24;;;;;;;3.53;1.93;;;;;;;9.18;58.62;97292.88;5441128;26;21012;-71
2024/04/20 05:23:50;;;;;;;5.13;2.50;;;;;;;9.23;58.60;97295.06;5442098;26;20235;-70
2024/04/20 05:26:15;;;;;;;8.00;2.23;;;;;;;9.29;58.46;97304.13;5440588;26;20231;-72
2024/04/20 05:28:41;;;;;;;3.83;2.30;;;;;;;9.34;58.16;97301.94;5435828;26;20765;-70
2024/04/20 05:31:07;;;;;;;3.97;2.67;;;;;;;9.34;58.14;97299.31;5444213;26;20247;-70
2024/04/20 05:33:32;;;;;;;7.10;2.60;;;;;;;9.39;58.14;97294.47;5441368;26;20914;-70
2024/04/20 05:36:03;;;;;;;3.80;2.13;;;;;;;9.41;57.92;97303.00;5446278;26;20227;-70
2024/04/20 05:38:28;;;;;;;3.90;2.50;;;;;;;9.34;57.11;97302.75;5444169;26;20743;-72
2024/04/20 05:40:54;;;;;;;5.27;2.30;;;;;;;9.38;57.35;97309.34;5427312;26;20553;-72
2024/04/20 05:43:19;;;;;;;6.83;2.30;;;;;;;9.34;57.17;97307.97;5425473;26;20231;-70
2024/04/20 05:45:45;;;;;;;4.27;1.93;;;;;;;9.42;57.01;97309.06;5435344;26;20243;-71
2024/04/20 05:48:10;;;;;;;3.20;1.87;;;;;;;9.42;56.36;97311.69;5435880;26;20235;-75
2024/04/20 05:50:36;;;;;;;6.77;1.90;;;;;;;9.43;56.41;97315.97;5440914;26;20588;-71
2024/04/20 05:53:01;;;;;;;3.90;1.80;;;;;;;9.44;56.27;97315.00;5439020;26;20251;-70
2024/04/20 05:55:27;;;;;;;5.13;1.80;;;;;;;9.49;56.01;97320.59;5430535;26;20285;-72
2024/04/20 05:57:53;;;;;;;4.63;1.80;;;;;;;9.52;55.71;97330.78;5445257;26;20239;-73
2024/04/20 06:00:18;;;;;;;2.90;1.70;;;;;;;9.57;55.31;97328.59;5442230;26;20235;-71
2024/04/20 06:02:44;;;;;;;7.47;1.80;;;;;;;9.57;54.95;97333.81;5445504;26;20472;-69
2024/04/20 06:05:09;;;;;;;4.83;1.80;;;;;;;9.61;55.42;97345.63;5446495;26;20243;-71
2024/04/20 06:07:36;;;;;;;2.70;1.97;;;;;;;9.65;55.22;97344.38;5445695;26;20290;-70
2024/04/20 06:10:02;;;;;;;6.07;2.37;;;;;;;9.68;55.08;97353.75;5445617;26;20282;-72
2024/04/20 06:12:27;;;;;;;5.00;2.17;;;;;;;9.74;54.99;97355.81;5443435;26;20457;-70
2024/04/20 06:14:52;;;;;;;2.07;1.87;;;;;;;9.90;55.23;97359.56;5446153;26;20231;-70
2024/04/20 06:17:18;;;;;;;5.60;1.90;;;;;;;9.99;54.43;97353.50;5442973;26;20304;-71
2024/04/20 06:19:43;;;;;;;4.80;2.07;;;;;;;10.06;53.69;97369.44;5444954;26;20248;-71
2024/04/20 06:22:09;;;;;;;5.57;2.23;;;;;;;10.11;53.96;97359.34;5440963;26;20263;-71
2024/04/20 06:24:37;;;;;;;4.27;1.97;;;;;;;10.20;53.63;97365.50;5444157;26;20239;-70
2024/04/20 06:27:04;;;;;;;3.10;1.80;;;;;;;10.29;51.96;97365.47;5443968;26;20231;-70
2024/04/20 06:29:29;;;;;;;6.20;2.50;;;;;;;10.38;52.30;97373.44;5443998;26;20582;-70
2024/04/20 06:31:55;;;;;;;3.40;1.80;;;;;;;10.46;52.66;97368.28;5445881;26;20465;-72
2024/04/20 06:34:20;;;;;;;5.03;1.73;;;;;;;10.62;52.54;97374.66;5445008;26;20713;-70
2024/04/20 06:36:46;;;;;;;4.90;2.33;;;;;;;10.68;51.93;97368.84;5443528;26;20231;-70
2024/04/20 06:39:11;;;;;;;2.73;1.70;;;;;;;10.78;51.42;97374.84;5445887;26;20278;-70
2024/04/20 06:41:37;;;;;;;4.73;2.47;;;;;;;11.00;51.12;97377.97;5445535;26;20232;-71
2024/04/20 06:44:03;;;;;;;5.90;2.10;;;;;;;11.21;51.45;97386.34;5445840;26;20763;-69
2024/04/20 06:46:28;;;;;;;1.80;1.70;;;;;;;11.47;50.45;97387.38;5443104;26;20285;-69
2024/04/20 06:48:54;;;;;;;3.97;1.90;;;;;;;11.64;49.34;97391.75;5442903;26;20302;-72
2024/04/20 06:51:20;;;;;;;2.23;1.73;;;;;;;11.79;49.32;97385.91;5444411;26;20343;-71
2024/04/20 06:53:45;;;;;;;6.40;2.13;;;;;;;11.94;48.03;97394.06;5430207;26;20644;-70
2024/04/20 06:56:12;;;;;;;6.10;1.97;;;;;;;12.11;48.50;97387.09;5444786;26;20728;-70
2024/04/20 06:58:43;;;;;;;2.00;1.60;;;;;;;12.25;47.52;97398.81;5434315;26;20724;-72
2024/04/20 07:01:09;;;;;;;11.67;2.10;;;;;;;12.39;47.39;97400.84;5444436;26;20805;-70
2024/04/20 07:03:35;;;;;;;3.53;1.70;;;;;;;12.58;47.29;97396.31;5430406;26;20542;-71
2024/04/20 07:06:01;;;;;;;4.20;1.70;;;;;;;12.64;46.44;97405.34;5446483;26;20236;-71
2024/04/20 07:08:28;;;;;;;2.43;1.83;;;;;;;12.62;46.48;97416.00;5444257;26;20286;-73
2024/04/20 07:11:00;;;;;;;3.77;2.27;;;;;;;12.78;46.88;97407.38;5445831;26;20283;-71
2024/04/20 07:13:30;;;;;;;15.73;3.67;;;;;;;12.75;45.43;97421.63;5444562;26;20501;-69
2024/04/20 07:15:55;;;;;;;4.17;2.30;;;;;;;12.70;45.57;97428.38;5445785;26;20540;-71
2024/04/20 07:18:21;;;;;;;3.80;2.07;;;;;;;12.51;45.46;97430.31;5444706;26;21320;-71
2024/04/20 07:20:46;;;;;;;3.87;1.90;;;;;;;12.39;45.69;97444.72;5443077;26;20289;-69
2024/04/20 07:23:12;;;;;;;4.70;2.37;;;;;;;12.29;46.18;97448.25;5444986;26;20236;-70
2024/04/20 07:25:38;;;;;;;4.40;2.30;;;;;;;12.19;46.17;97442.31;5444704;26;20283;-72
2024/04/20 07:28:03;;;;;;;3.90;2.23;;;;;;;12.13;47.15;97448.19;5442981;26;20231;-72
2024/04/20 07:30:29;;;;;;;3.20;2.20;;;;;;;12.16;47.94;97452.31;5441130;26;20308;-69
2024/04/20 07:32:54;;;;;;;7.43;2.50;;;;;;;12.11;45.35;97450.97;5445460;26;20315;-70
2024/04/20 07:35:20;;;;;;;3.80;2.20;;;;;;;12.06;45.59;97450.63;5445448;26;20231;-71
2024/04/20 07:37:45;;;;;;;3.33;2.70;;;;;;;11.91;46.28;97457.38;5435222;26;20282;-70
2024/04/20 07:40:35;;;;;;;;;;;;;;;;;;;;;
2024/04/20 07:43:01;;;;;;;4.50;2.43;;;;;;;11.74;45.57;97469.59;5432055;26;20239;-70
2024/04/20 07:45:26;;;;;;;4.30;2.53;;;;;;;11.64;45.41;97474.94;5428428;26;20515;-72
2024/04/20 07:47:52;;;;;;;3.80;2.50;;;;;;;11.73;46.39;97478.44;5437554;26;20232;-73
2024/04/20 07:50:17;;;;;;;2.70;2.23;;;;;;;11.72;45.94;97476.78;5439551;26;20781;-70
2024/04/20 07:52:43;;;;;;;11.43;2.70;;;;;;;11.62;45.93;97477.72;5428036;26;20256;-70
2024/04/20 07:55:08;;;;;;;5.83;2.83;;;;;;;11.73;46.18;97487.13;5444791;26;20287;-71
2024/04/20 07:57:34;;;;;;;3.20;2.33;;;;;;;11.88;45.75;97483.94;5429708;26;20228;-70
2024/04/20 08:00:01;;;;;;;2.97;2.20;;;;;;;11.88;45.44;97491.84;5444168;26;20324;-71
2024/04/20 08:02:26;;;;;;;5.63;2.33;;;;;;;11.87;45.04;97492.81;5444424;26;20236;-71
2024/04/20 08:04:52;;;;;;;4.30;2.80;;;;;;;11.97;45.14;97491.75;5458239;26;20503;-71
2024/04/20 08:07:17;;;;;;;4.30;2.53;;;;;;;12.27;44.93;97499.34;5444380;26;20779;-70
2024/04/20 08:09:43;;;;;;;3.20;2.50;;;;;;;12.38;44.65;97496.44;5433739;26;20243;-71
2024/04/20 08:12:08;;;;;;;2.57;2.00;;;;;;;12.34;43.44;97497.75;5444798;26;20232;-70
2024/04/20 08:14:35;;;;;;;5.13;2.10;;;;;;;12.26;42.82;97510.81;5444353;26;21022;-70
2024/04/20 08:17:00;;;;;;;3.80;2.27;;;;;;;12.40;42.94;97509.44;5443817;26;20844;-71
2024/04/20 08:19:26;;;;;;;6.57;2.30;;;;;;;12.54;43.42;97510.66;5443173;26;20469;-72
2024/04/20 08:21:51;;;;;;;5.10;2.40;;;;;;;12.61;43.73;97511.66;5435084;26;20786;-69
2024/04/20 08:24:17;;;;;;;3.37;1.90;;;;;;;12.60;42.34;97517.91;5447207;26;20972;-71
2024/04/20 08:26:42;;;;;;;2.30;2.03;;;;;;;12.57;42.79;97521.66;5447344;26;20274;-72
2024/04/20 08:29:07;;;;;;;3.40;2.03;;;;;;;12.41;40.75;97518.97;5447484;26;20388;-69
2024/04/20 08:31:33;;;;;;;2.27;1.90;;;;;;;12.44;40.89;97537.03;5431467;26;20736;-72
2024/04/20 08:33:58;;;;;;;4.60;1.87;;;;;;;12.38;40.69;97533.22;5443024;26;20352;-72
2024/04/20 08:36:24;;;;;;;5.70;2.30;;;;;;;12.48;40.68;97529.66;5446108;26;20239;-70
2024/04/20 08:38:49;;;;;;;2.70;2.30;;;;;;;12.50;40.33;97536.44;5447163;26;20231;-72
2024/04/20 08:41:16;;;;;;;2.90;2.17;;;;;;;12.46;40.33;97537.72;5448631;26;20286;-73
2024/04/20 08:43:42;;;;;;;4.23;2.10;;;;;;;12.40;40.29;97536.53;5445228;26;20603;-71
2024/04/20 08:46:09;;;;;;;3.13;2.10;;;;;;;12.20;40.98;97537.72;5448065;26;20825;-70
2024/04/20 08:48:35;;;;;;;2.30;2.10;;;;;;;12.05;42.26;97540.91;5444659;26;20884;-71
2024/04/20 08:51:04;;;;;;;2.93;2.50;;;;;;;11.95;42.02;97542.78;5446159;26;20526;-70
2024/04/20 08:53:31;;;;;;;3.30;2.43;;;;;;;11.96;42.68;97547.88;5447610;26;21028;-71
2024/04/20 08:55:56;;;;;;;4.43;2.37;;;;;;;11.93;43.25;97553.44;5448737;26;20453;-70
2024/04/20 08:58:22;;;;;;;5.87;2.20;;;;;;;11.90;42.65;97558.16;5448813;26;20461;-71
2024/04/20 09:00:50;;;;;;;4.63;2.67;;;;;;;11.96;43.29;97562.81;5447429;26;20240;-71
2024/04/20 09:03:15;;;;;;;4.07;2.83;;;;;;;12.08;42.96;97566.06;5448052;26;20317;-71
2024/04/20 09:05:42;;;;;;;4.90;2.60;;;;;;;12.24;42.96;97560.91;5447694;26;20697;-70
2024/04/20 09:08:09;;;;;;;2.97;2.60;;;;;;;12.44;43.21;97571.22;5447238;26;20235;-71
2024/04/20 09:10:34;;;;;;;6.70;3.47;;;;;;;12.99;42.06;97569.19;5447013;26;20566;-72
2024/04/20 09:13:00;;;;;;;8.90;2.77;;;;;;;13.47;41.37;97574.78;5446268;26;20811;-71
2024/04/20 09:15:28;;;;;;;7.03;2.80;;;;;;;13.66;40.40;97560.50;5447854;26;20236;-71
2024/04/20 09:17:54;;;;;;;2.73;2.53;;;;;;;13.82;40.19;97564.94;5451263;26;20250;-71
2024/04/20 09:20:19;;;;;;;3.60;2.83;;;;;;;14.34;40.20;97569.03;5452633;26;20457;-71
2024/04/20 09:22:45;;;;;;;2.83;2.23;;;;;;;14.76;38.98;97564.50;5446487;26;20515;-73
2024/04/20 09:25:10;;;;;;;6.00;2.73;;;;;;;14.73;38.97;97570.13;5445575;26;20247;-70
2024/04/20 09:27:36;;;;;;;3.07;2.60;;;;;;;14.67;38.34;97573.41;5414913;26;20231;-72
2024/04/20 09:30:03;;;;;;;4.13;2.43;;;;;;;14.51;38.61;97579.56;5447337;26;20235;-71
2024/04/20 09:32:34;;;;;;;9.27;2.87;;;;;;;14.11;37.62;97587.34;5447102;26;20348;-71
2024/04/20 09:35:02;;;;;;;2.90;2.50;;;;;;;13.84;37.54;97586.69;5443872;26;20464;-73
2024/04/20 09:37:27;;;;;;;7.40;2.60;;;;;;;13.83;38.25;97583.22;5445024;26;20548;-72
2024/04/20 09:39:55;;;;;;;6.53;3.00;;;;;;;14.03;39.90;97584.69;5446281;26;20911;-71
2024/04/20 09:42:22;;;;;;;4.40;2.97;;;;;;;13.96;39.37;97581.91;5446926;26;20290;-70
2024/04/20 09:44:49;;;;;;;4.80;2.50;;;;;;;13.96;39.40;97589.81;5430040;26;20548;-72
2024/04/20 09:47:16;;;;;;;5.00;2.60;;;;;;;13.85;39.21;97590.13;5436079;26;20462;-72
2024/04/20 09:49:45;;;;;;;6.10;3.03;;;;;;;13.88;38.67;97588.00;5444696;26;20453;-72
2024/04/20 09:52:21;;;;;;;2.97;2.77;;;;;;;13.89;39.49;97581.72;5445052;26;20473;-70
2024/04/20 09:55:04;;;;;;;3.07;2.67;;;;;;;13.81;38.42;97590.47;5414684;26;20457;-70
2024/04/20 09:57:32;;;;;;;6.20;2.60;;;;;;;13.73;38.56;97598.34;5445033;26;21133;-72
2024/04/20 09:59:58;;;;;;;5.17;2.30;;;;;;;13.66;38.79;97598.19;5443784;26;20465;-70
2024/04/20 10:02:23;;;;;;;2.60;2.40;;;;;;;13.66;38.54;97603.44;5445124;26;20813;-71
2024/04/20 10:04:49;;;;;;;4.03;2.50;;;;;;;13.76;37.81;97595.41;5446013;26;20521;-72
2024/04/20 10:07:15;;;;;;;3.67;2.40;;;;;;;13.69;37.89;97602.28;5444741;26;20247;-71
2024/04/20 10:09:41;;;;;;;3.40;2.60;;;;;;;13.62;38.08;97612.66;5437623;26;20239;-71
2024/04/20 10:12:07;;;;;;;5.57;2.30;;;;;;;13.46;38.16;97607.38;5432590;26;20509;-71
2024/04/20 10:14:33;;;;;;;6.97;2.33;;;;;;;13.13;39.32;97623.84;5446880;26;20647;-71
2024/04/20 10:17:00;;;;;;;3.10;2.20;;;;;;;12.92;40.77;97634.75;5445397;26;20512;-72
2024/04/20 10:19:42;;;;;;;5.50;2.20;;;;;;;12.78;41.23;97635.34;5415066;26;20830;-69
2024/04/20 10:22:10;;;;;;;4.87;2.53;;;;;;;12.66;41.92;97626.91;5445123;26;20468;-73
2024/04/20 10:24:35;;;;;;;2.40;2.20;;;;;;;12.56;41.65;97633.06;5444703;26;20516;-70
2024/04/20 10:27:01;;;;;;;3.00;1.90;;;;;;;12.62;42.00;97636.88;5442719;26;20505;-72
2024/04/20 10:29:27;;;;;;;3.60;2.50;;;;;;;12.71;42.29;97624.63;5408707;26;20279;-71
2024/04/20 10:31:59;;;;;;;4.47;3.00;;;;;;;12.77;41.96;97626.63;5444791;26;20239;-73
2024/04/20 10:34:28;;;;;;;5.50;2.30;;;;;;;12.80;42.38;97623.66;5438537;26;20354;-73
2024/04/20 10:37:11;;;;;;;3.00;2.43;;;;;;;12.88;41.96;97633.41;5409234;26;20486;-69
2024/04/20 10:39:51;;;;;;;2.90;2.50;;;;;;;12.91;41.13;97630.47;5445754;26;21280;-70
2024/04/20 10:42:23;;;;;;;7.43;2.70;;;;;;;12.81;40.99;97633.22;5439581;26;20516;-73
2024/04/20 10:44:48;;;;;;;5.47;2.50;;;;;;;12.79;41.36;97637.00;5444861;26;20243;-71
2024/04/20 10:47:19;;;;;;;3.10;2.30;;;;;;;12.76;41.92;97640.75;5445361;26;20562;-72
2024/04/20 10:49:45;;;;;;;5.00;2.90;;;;;;;12.71;41.65;97640.41;5444359;26;20269;-72
2024/04/20 10:52:18;;;;;;;5.67;2.60;;;;;;;12.69;41.86;97634.47;5446276;26;20465;-71
2024/04/20 10:54:44;;;;;;;3.37;2.63;;;;;;;12.64;42.73;97645.44;5442869;26;20674;-73
2024/04/20 10:57:11;;;;;;;5.07;3.00;;;;;;;12.65;43.52;97641.84;5446353;26;20519;-72
2024/04/20 10:59:43;;;;;;;4.60;2.60;;;;;;;12.64;42.07;97645.44;5444052;26;20239;-72
2024/04/20 11:02:09;;;;;;;7.07;2.83;;;;;;;12.63;42.00;97646.41;5446727;26;20456;-71
2024/04/20 11:04:34;;;;;;;7.10;2.50;;;;;;;12.65;42.35;97655.00;5444631;26;20473;-72
2024/04/20 11:07:04;;;;;;;2.90;2.30;;;;;;;12.67;41.91;97654.81;5446239;26;20524;-75
2024/04/20 11:09:29;;;;;;;4.60;2.93;;;;;;;12.70;41.73;97652.72;5446294;26;20559;-72
2024/04/20 11:12:02;;;;;;;3.00;2.30;;;;;;;12.72;41.15;97653.41;5440307;26;20511;-70
2024/04/20 11:14:28;;;;;;;3.80;2.20;;;;;;;12.74;41.10;97667.19;5444434;26;20251;-71
2024/04/20 11:16:54;;;;;;;3.37;2.40;;;;;;;12.75;40.68;97662.78;5444701;26;20453;-71
2024/04/20 11:19:19;;;;;;;5.53;2.30;;;;;;;12.79;41.53;97664.09;5443063;26;21185;-70
2024/04/20 11:21:45;;;;;;;2.63;2.00;;;;;;;12.80;40.81;97662.31;5430152;26;20348;-71
2024/04/20 11:24:11;;;;;;;4.30;2.00;;;;;;;12.88;39.93;97665.81;5439415;26;20340;-72
2024/04/20 11:26:36;;;;;;;3.63;2.20;;;;;;;12.93;39.84;97665.34;5443094;26;20347;-71
2024/04/20 11:29:02;;;;;;;7.47;2.20;;;;;;;12.97;39.30;97671.13;5445606;26;20294;-71
2024/04/20 11:31:27;;;;;;;9.93;2.67;;;;;;;13.02;38.79;97674.94;5445798;26;20610;-72
2024/04/20 11:33:53;;;;;;;3.80;2.30;;;;;;;13.02;38.42;97664.41;5425313;26;20253;-71